Weather observations for the past three days for
Ciudad Juarez International
Metric (Imperial)
Date Time (cdt) Wind (kph) Vis. (km) Weather Sky Cond. Temperature (ºC) Relative Humidity Wind Chill (°C) Heat Index (°C) Pressure Precipitation (cm)
Air Dwpt 6 hour altimeter (cm) sea level (mb) 1 hr 3 hr 6 hr
Max. Min.
10 08:40 S 9 16.09 Clear SKC 22 -4 17% 76.25 0.0
10 07:40 N 7 16.09 A Few Clouds FEW100 25 -4 14% 25 76.15 0.0
10 06:40 NW 19 16.09 A Few Clouds FEW100 26 -5 12% 25 76.05 1000.5
09 21:40 SW 9 16.09 Clear SKC 29 -6 10% 27 75.92 1000.3
09 20:40 SW 7 16.09 Clear SKC 31 -5 9% 29 75.87 0.0
09 19:40 W 19 16.09 Clear SKC 33 -7 7% 31 75.87 0.0
09 18:40 W 13 16.09 Clear SKC 34 -8 6% 31 75.9 1000.1
09 17:40 S 9 16.09 Clear SKC 34 -8 6% 31 75.92 0.0
09 16:40 SW 13 16.09 Clear SKC 35 -5 7% 32 75.97 0.0
09 15:40 S 9 16.09 Clear SKC 34 -6 7% 31 76.05 1002.2
09 14:40 S 6 16.09 Clear SKC 33 -4 9% 31 76.12 0.0
09 13:40 SW 6 16.09 Clear SKC 31 -3 11% 29 76.17 0.0
09 12:40 S 13 16.09 Clear SKC 30 -2 12% 28 76.25 1004.6
09 11:40 S 7 16.09 Clear SKC 28 -3 13% 27 76.25 0.0
09 10:40 Calm 16.09 Clear SKC 26 -2 16% 25 76.25 0.0
09 09:40 SW 13 16.09 Clear SKC 23 -3 17% 76.28 1005.2
09 08:40 Calm 16.09 Clear SKC 19 -1 26% 76.23 0.0
09 06:40 S 7 16.09 Clear SKC 17 -2 27% 76.1 1003.5
08 21:40 Calm 16.09 Clear SKC 27 -6 11% 26 76 1002.2
08 20:40 SW 7 16.09 Clear SKC 29 -7 9% 27 75.95 0.0
08 19:40 NW 7 16.09 Clear SKC 31 -7 8% 29 75.92 0.0
08 18:40 W 6 16.09 Clear SKC 31 -9 7% 29 75.92 1001.6
08 17:40 W 15 16.09 Clear SKC 31 -11 6% 29 75.95 0.0
08 16:40 SW 9 16.09 A Few Clouds FEW050 31 -6 9% 29 76 0.0
08 15:40 NW 11 16.09 A Few Clouds FEW050 30 -5 10% 28 76.02 1003.2
08 14:40 Calm 16.09 A Few Clouds FEW050 FEW080 29 -6 10% 27 76.1 0.0
08 13:42 NW 13 16.09 A Few Clouds FEW050 FEW200 29 -5 10% 27 76.12 0.0
08 12:40 Vrbl 6 16.09 Partly Cloudy FEW050 FEW080 SCT200 27 -3 14% 26 76.17 1004.5
08 11:40 N 15 16.09 Partly Cloudy FEW050 SCT120 SCT200 25 -3 15% 25 76.2 0.0
08 10:40 S 7 16.09 Mostly Cloudy FEW050 SCT120 BKN200 23 2 25% 76.23 0.0
08 09:40 N 7 16.09 Partly Cloudy FEW080 SCT130 SCT200 21 3 31% 76.23 1005.7
08 08:40 SE 6 16.09 Partly Cloudy FEW090 SCT200 20 3 33% 76.17 0.0
08 06:40 SW 6 16.09 Partly Cloudy FEW050 SCT090 SCT200 15 2 42% 76.15 1004.9
07 22:41 E 17 16.09 Partly Cloudy SCT200 24 -2 18% 24 76.15 0.0
07 21:41 NE 11 16.09 Partly Cloudy FEW040 SCT200 24 -4 15% 24 76.07 1005.1
07 20:40 N 7 16.09 Partly Cloudy FEW040 SCT200 26 -4 13% 25 76.02 0.0
07 19:40 NE 11 16.09 A Few Clouds FEW040 FEW200 27 -4 13% 26 76.02 0.0
07 18:40 NE 15 16.09 A Few Clouds FEW040 27 -3 14% 26 76.05 1004.2
07 17:42 SW 7 16.09 A Few Clouds FEW040 28 -3 13% 27 76.1 0.0
07 16:40 SE 11 16.09 Clear SKC 28 -3 13% 27 76.15 0.0
07 15:40 E 6 16.09 Clear SKC 26 -3 15% 25 76.23 1006.6
07 14:42 NE 11 16.09 Clear SKC 26 0 18% 25 76.3 0.0
07 13:40 NE 15 16.09 Clear SKC 24 -1 19% 24 76.38 0.0
07 12:40 E 15 16.09 Clear SKC 22 0 23% 76.43 1009.5
07 11:40 E 9 16.09 Clear SKC 20 1 28% 76.48 0.0
07 10:40 NE 13 16.09 Clear SKC 18 0 30% 76.53 0.0
Date Time (cdt) Wind (kph) Vis. (km) Weather Sky Cond. Air Dwpt Max. Min. Relative Humidity Wind Chill (°C) Heat Index (°C) altimeter (cm) sea level (mb) 1 hr 3 hr 6 hr
6 hour
Temperature (ºC) Pressure Precipitation (cm)